sensor_id;sensor_type;location;lat;lon;timestamp;P1;durP1;ratioP1;P2;durP2;ratioP2
16892;SDS011;8563;52.242;9.098;2023-03-03T00:00:29;23.87;;;16.77;;
16892;SDS011;8563;52.242;9.098;2023-03-03T00:03:04;26.13;;;16.73;;
16892;SDS011;8563;52.242;9.098;2023-03-03T00:05:37;24.50;;;16.93;;
16892;SDS011;8563;52.242;9.098;2023-03-03T00:08:10;25.50;;;17.03;;
16892;SDS011;8563;52.242;9.098;2023-03-03T00:10:43;29.40;;;17.70;;
16892;SDS011;8563;52.242;9.098;2023-03-03T00:13:16;34.60;;;19.77;;
16892;SDS011;8563;52.242;9.098;2023-03-03T00:15:48;25.03;;;17.20;;
16892;SDS011;8563;52.242;9.098;2023-03-03T00:18:24;27.47;;;17.07;;
16892;SDS011;8563;52.242;9.098;2023-03-03T00:20:57;31.03;;;18.83;;
16892;SDS011;8563;52.242;9.098;2023-03-03T00:23:34;28.13;;;18.37;;
16892;SDS011;8563;52.242;9.098;2023-03-03T00:26:14;39.70;;;17.40;;
16892;SDS011;8563;52.242;9.098;2023-03-03T00:28:49;34.00;;;18.17;;
16892;SDS011;8563;52.242;9.098;2023-03-03T00:31:24;32.63;;;19.00;;
16892;SDS011;8563;52.242;9.098;2023-03-03T00:34:00;36.63;;;18.13;;
16892;SDS011;8563;52.242;9.098;2023-03-03T00:36:44;26.37;;;15.93;;
16892;SDS011;8563;52.242;9.098;2023-03-03T00:39:22;34.40;;;17.97;;
16892;SDS011;8563;52.242;9.098;2023-03-03T00:41:58;35.53;;;20.17;;
16892;SDS011;8563;52.242;9.098;2023-03-03T00:44:38;36.40;;;19.50;;
16892;SDS011;8563;52.242;9.098;2023-03-03T00:53:10;37.00;;;19.07;;
16892;SDS011;8563;52.242;9.098;2023-03-03T00:55:43;76.70;;;18.57;;
16892;SDS011;8563;52.242;9.098;2023-03-03T00:58:16;33.50;;;16.63;;
16892;SDS011;8563;52.242;9.098;2023-03-03T01:00:52;49.83;;;16.77;;
16892;SDS011;8563;52.242;9.098;2023-03-03T01:03:31;57.83;;;17.23;;
16892;SDS011;8563;52.242;9.098;2023-03-03T01:06:03;104.43;;;19.43;;
16892;SDS011;8563;52.242;9.098;2023-03-03T01:08:37;63.73;;;18.07;;
16892;SDS011;8563;52.242;9.098;2023-03-03T01:11:11;73.17;;;18.13;;
16892;SDS011;8563;52.242;9.098;2023-03-03T01:13:45;134.27;;;21.23;;
16892;SDS011;8563;52.242;9.098;2023-03-03T01:16:19;120.23;;;21.23;;
16892;SDS011;8563;52.242;9.098;2023-03-03T01:18:52;79.70;;;18.03;;
16892;SDS011;8563;52.242;9.098;2023-03-03T01:21:25;49.07;;;16.57;;
16892;SDS011;8563;52.242;9.098;2023-03-03T01:23:59;71.47;;;18.90;;
16892;SDS011;8563;52.242;9.098;2023-03-03T01:26:32;37.27;;;16.57;;
16892;SDS011;8563;52.242;9.098;2023-03-03T01:29:04;44.23;;;16.60;;
16892;SDS011;8563;52.242;9.098;2023-03-03T01:31:37;80.70;;;19.83;;
16892;SDS011;8563;52.242;9.098;2023-03-03T01:34:09;56.97;;;17.50;;
16892;SDS011;8563;52.242;9.098;2023-03-03T01:36:42;69.17;;;17.23;;
16892;SDS011;8563;52.242;9.098;2023-03-03T01:39:16;48.53;;;16.97;;
16892;SDS011;8563;52.242;9.098;2023-03-03T01:41:48;95.97;;;17.00;;
16892;SDS011;8563;52.242;9.098;2023-03-03T01:44:21;42.53;;;16.67;;
16892;SDS011;8563;52.242;9.098;2023-03-03T01:46:54;35.87;;;15.43;;
16892;SDS011;8563;52.242;9.098;2023-03-03T01:49:27;30.23;;;14.87;;
16892;SDS011;8563;52.242;9.098;2023-03-03T01:52:03;27.67;;;14.40;;
16892;SDS011;8563;52.242;9.098;2023-03-03T01:54:42;40.57;;;15.00;;
16892;SDS011;8563;52.242;9.098;2023-03-03T01:57:18;25.83;;;13.53;;
16892;SDS011;8563;52.242;9.098;2023-03-03T01:59:53;34.63;;;13.23;;
16892;SDS011;8563;52.242;9.098;2023-03-03T02:02:26;22.70;;;13.53;;
16892;SDS011;8563;52.242;9.098;2023-03-03T02:04:59;37.60;;;13.97;;
16892;SDS011;8563;52.242;9.098;2023-03-03T02:07:32;24.60;;;13.17;;
16892;SDS011;8563;52.242;9.098;2023-03-03T02:10:08;26.20;;;13.67;;
16892;SDS011;8563;52.242;9.098;2023-03-03T02:12:42;32.70;;;14.40;;
16892;SDS011;8563;52.242;9.098;2023-03-03T02:15:16;37.50;;;13.40;;
16892;SDS011;8563;52.242;9.098;2023-03-03T02:17:49;43.17;;;13.87;;
16892;SDS011;8563;52.242;9.098;2023-03-03T02:20:27;44.30;;;14.27;;
16892;SDS011;8563;52.242;9.098;2023-03-03T02:23:03;30.07;;;14.37;;
16892;SDS011;8563;52.242;9.098;2023-03-03T02:25:41;49.33;;;15.10;;
16892;SDS011;8563;52.242;9.098;2023-03-03T02:28:16;27.20;;;13.90;;
16892;SDS011;8563;52.242;9.098;2023-03-03T02:30:53;37.10;;;15.00;;
16892;SDS011;8563;52.242;9.098;2023-03-03T02:33:27;29.87;;;14.23;;
16892;SDS011;8563;52.242;9.098;2023-03-03T02:35:59;71.23;;;15.50;;
16892;SDS011;8563;52.242;9.098;2023-03-03T02:38:34;38.73;;;15.23;;
16892;SDS011;8563;52.242;9.098;2023-03-03T02:41:10;41.13;;;14.70;;
16892;SDS011;8563;52.242;9.098;2023-03-03T02:43:50;39.63;;;16.23;;
16892;SDS011;8563;52.242;9.098;2023-03-03T02:46:24;32.40;;;14.60;;
16892;SDS011;8563;52.242;9.098;2023-03-03T02:48:57;37.07;;;14.57;;
16892;SDS011;8563;52.242;9.098;2023-03-03T02:51:29;40.93;;;15.43;;
16892;SDS011;8563;52.242;9.098;2023-03-03T02:54:02;41.73;;;14.80;;
16892;SDS011;8563;52.242;9.098;2023-03-03T02:56:36;38.07;;;14.60;;
16892;SDS011;8563;52.242;9.098;2023-03-03T02:59:10;35.93;;;15.30;;
16892;SDS011;8563;52.242;9.098;2023-03-03T03:01:47;25.30;;;14.07;;
16892;SDS011;8563;52.242;9.098;2023-03-03T03:04:23;38.17;;;14.83;;
16892;SDS011;8563;52.242;9.098;2023-03-03T03:06:56;37.80;;;14.67;;
16892;SDS011;8563;52.242;9.098;2023-03-03T03:09:31;31.27;;;13.63;;
16892;SDS011;8563;52.242;9.098;2023-03-03T03:12:04;24.30;;;13.43;;
16892;SDS011;8563;52.242;9.098;2023-03-03T03:14:40;40.53;;;15.13;;
16892;SDS011;8563;52.242;9.098;2023-03-03T03:17:12;34.07;;;13.57;;
16892;SDS011;8563;52.242;9.098;2023-03-03T03:19:46;34.23;;;14.87;;
16892;SDS011;8563;52.242;9.098;2023-03-03T03:22:19;47.43;;;15.30;;
16892;SDS011;8563;52.242;9.098;2023-03-03T03:24:52;37.00;;;15.77;;
16892;SDS011;8563;52.242;9.098;2023-03-03T03:27:25;36.37;;;14.47;;
16892;SDS011;8563;52.242;9.098;2023-03-03T03:29:59;35.93;;;13.83;;
16892;SDS011;8563;52.242;9.098;2023-03-03T03:32:33;44.93;;;16.10;;
16892;SDS011;8563;52.242;9.098;2023-03-03T03:35:06;25.13;;;13.67;;
16892;SDS011;8563;52.242;9.098;2023-03-03T03:37:39;30.70;;;13.83;;
16892;SDS011;8563;52.242;9.098;2023-03-03T03:40:12;41.40;;;14.27;;
16892;SDS011;8563;52.242;9.098;2023-03-03T03:42:45;34.60;;;14.03;;
16892;SDS011;8563;52.242;9.098;2023-03-03T03:45:19;51.63;;;15.17;;
16892;SDS011;8563;52.242;9.098;2023-03-03T03:47:51;46.60;;;14.93;;
16892;SDS011;8563;52.242;9.098;2023-03-03T03:50:23;51.87;;;15.27;;
16892;SDS011;8563;52.242;9.098;2023-03-03T03:52:57;42.43;;;14.37;;
16892;SDS011;8563;52.242;9.098;2023-03-03T03:55:30;49.37;;;13.83;;
16892;SDS011;8563;52.242;9.098;2023-03-03T03:58:02;59.43;;;14.40;;
16892;SDS011;8563;52.242;9.098;2023-03-03T04:00:37;55.10;;;15.50;;
16892;SDS011;8563;52.242;9.098;2023-03-03T04:03:10;25.20;;;11.87;;
16892;SDS011;8563;52.242;9.098;2023-03-03T04:05:46;32.37;;;12.90;;
16892;SDS011;8563;52.242;9.098;2023-03-03T04:08:20;27.63;;;12.93;;
16892;SDS011;8563;52.242;9.098;2023-03-03T04:10:52;29.30;;;13.67;;
16892;SDS011;8563;52.242;9.098;2023-03-03T04:13:25;32.50;;;13.33;;
16892;SDS011;8563;52.242;9.098;2023-03-03T04:16:03;33.33;;;13.87;;
16892;SDS011;8563;52.242;9.098;2023-03-03T04:18:36;24.50;;;13.30;;
16892;SDS011;8563;52.242;9.098;2023-03-03T04:21:10;36.73;;;13.80;;
16892;SDS011;8563;52.242;9.098;2023-03-03T04:23:43;25.67;;;13.13;;
16892;SDS011;8563;52.242;9.098;2023-03-03T04:26:16;33.03;;;12.77;;
16892;SDS011;8563;52.242;9.098;2023-03-03T04:28:50;31.50;;;12.73;;
16892;SDS011;8563;52.242;9.098;2023-03-03T04:31:25;26.80;;;12.67;;
16892;SDS011;8563;52.242;9.098;2023-03-03T04:33:58;24.87;;;11.40;;
16892;SDS011;8563;52.242;9.098;2023-03-03T04:36:31;26.77;;;12.77;;
16892;SDS011;8563;52.242;9.098;2023-03-03T04:39:05;29.00;;;11.77;;
16892;SDS011;8563;52.242;9.098;2023-03-03T04:41:37;29.20;;;11.87;;
16892;SDS011;8563;52.242;9.098;2023-03-03T04:44:10;22.07;;;10.43;;
16892;SDS011;8563;52.242;9.098;2023-03-03T04:46:43;25.67;;;12.13;;
16892;SDS011;8563;52.242;9.098;2023-03-03T04:49:16;28.97;;;11.77;;
16892;SDS011;8563;52.242;9.098;2023-03-03T04:51:49;29.77;;;12.13;;
16892;SDS011;8563;52.242;9.098;2023-03-03T04:54:21;32.07;;;13.07;;
16892;SDS011;8563;52.242;9.098;2023-03-03T04:56:54;25.70;;;12.87;;
16892;SDS011;8563;52.242;9.098;2023-03-03T04:59:28;41.10;;;13.13;;
16892;SDS011;8563;52.242;9.098;2023-03-03T05:02:02;25.53;;;12.80;;
16892;SDS011;8563;52.242;9.098;2023-03-03T05:04:35;27.70;;;13.00;;
16892;SDS011;8563;52.242;9.098;2023-03-03T05:07:07;28.77;;;12.53;;
16892;SDS011;8563;52.242;9.098;2023-03-03T05:09:40;39.40;;;12.80;;
16892;SDS011;8563;52.242;9.098;2023-03-03T05:12:13;31.93;;;13.03;;
16892;SDS011;8563;52.242;9.098;2023-03-03T05:14:46;32.23;;;12.60;;
16892;SDS011;8563;52.242;9.098;2023-03-03T05:17:20;25.80;;;12.33;;
16892;SDS011;8563;52.242;9.098;2023-03-03T05:19:52;33.57;;;12.53;;
16892;SDS011;8563;52.242;9.098;2023-03-03T05:22:26;45.97;;;13.37;;
16892;SDS011;8563;52.242;9.098;2023-03-03T05:24:58;27.10;;;13.17;;
16892;SDS011;8563;52.242;9.098;2023-03-03T05:27:31;32.17;;;13.73;;
16892;SDS011;8563;52.242;9.098;2023-03-03T05:30:04;38.47;;;12.70;;
16892;SDS011;8563;52.242;9.098;2023-03-03T05:32:38;38.13;;;13.47;;
16892;SDS011;8563;52.242;9.098;2023-03-03T05:35:11;28.30;;;13.10;;
16892;SDS011;8563;52.242;9.098;2023-03-03T05:37:43;35.27;;;13.67;;
16892;SDS011;8563;52.242;9.098;2023-03-03T05:40:17;37.40;;;13.80;;
16892;SDS011;8563;52.242;9.098;2023-03-03T05:42:49;74.47;;;14.83;;
16892;SDS011;8563;52.242;9.098;2023-03-03T05:45:22;30.13;;;13.63;;
16892;SDS011;8563;52.242;9.098;2023-03-03T05:47:57;24.70;;;14.93;;
16892;SDS011;8563;52.242;9.098;2023-03-03T05:50:29;26.40;;;13.03;;
16892;SDS011;8563;52.242;9.098;2023-03-03T05:53:02;27.67;;;12.67;;
16892;SDS011;8563;52.242;9.098;2023-03-03T05:55:35;26.57;;;13.37;;
16892;SDS011;8563;52.242;9.098;2023-03-03T05:58:07;24.40;;;12.33;;
16892;SDS011;8563;52.242;9.098;2023-03-03T06:00:41;24.53;;;12.07;;
16892;SDS011;8563;52.242;9.098;2023-03-03T06:03:15;20.20;;;11.57;;
16892;SDS011;8563;52.242;9.098;2023-03-03T06:05:47;32.07;;;13.63;;
16892;SDS011;8563;52.242;9.098;2023-03-03T06:08:20;24.77;;;12.87;;
16892;SDS011;8563;52.242;9.098;2023-03-03T06:10:53;27.80;;;14.13;;
16892;SDS011;8563;52.242;9.098;2023-03-03T06:13:26;30.67;;;14.27;;
16892;SDS011;8563;52.242;9.098;2023-03-03T06:15:59;28.93;;;15.00;;
16892;SDS011;8563;52.242;9.098;2023-03-03T06:18:33;23.43;;;12.63;;
16892;SDS011;8563;52.242;9.098;2023-03-03T06:21:06;25.30;;;13.67;;
16892;SDS011;8563;52.242;9.098;2023-03-03T06:23:38;23.90;;;13.33;;
16892;SDS011;8563;52.242;9.098;2023-03-03T06:26:11;26.83;;;14.20;;
16892;SDS011;8563;52.242;9.098;2023-03-03T06:28:43;31.00;;;15.07;;
16892;SDS011;8563;52.242;9.098;2023-03-03T06:31:16;26.83;;;13.77;;
16892;SDS011;8563;52.242;9.098;2023-03-03T06:33:49;25.93;;;14.07;;
16892;SDS011;8563;52.242;9.098;2023-03-03T06:36:22;27.70;;;14.40;;
16892;SDS011;8563;52.242;9.098;2023-03-03T06:38:54;26.60;;;14.47;;
16892;SDS011;8563;52.242;9.098;2023-03-03T06:41:27;30.63;;;15.97;;
16892;SDS011;8563;52.242;9.098;2023-03-03T06:44:00;26.73;;;14.23;;
16892;SDS011;8563;52.242;9.098;2023-03-03T06:46:32;25.37;;;14.37;;
16892;SDS011;8563;52.242;9.098;2023-03-03T06:49:06;23.37;;;12.93;;
16892;SDS011;8563;52.242;9.098;2023-03-03T06:51:38;36.67;;;13.20;;
16892;SDS011;8563;52.242;9.098;2023-03-03T06:54:13;30.63;;;15.27;;
16892;SDS011;8563;52.242;9.098;2023-03-03T06:56:47;25.40;;;15.00;;
16892;SDS011;8563;52.242;9.098;2023-03-03T06:59:20;26.70;;;14.50;;
16892;SDS011;8563;52.242;9.098;2023-03-03T07:01:53;21.63;;;12.23;;
16892;SDS011;8563;52.242;9.098;2023-03-03T07:04:28;21.80;;;12.77;;
16892;SDS011;8563;52.242;9.098;2023-03-03T07:07:06;22.63;;;13.30;;
16892;SDS011;8563;52.242;9.098;2023-03-03T07:09:39;25.73;;;13.43;;
16892;SDS011;8563;52.242;9.098;2023-03-03T07:12:12;23.17;;;12.53;;
16892;SDS011;8563;52.242;9.098;2023-03-03T07:14:47;22.80;;;12.57;;
16892;SDS011;8563;52.242;9.098;2023-03-03T07:17:24;28.50;;;13.50;;
16892;SDS011;8563;52.242;9.098;2023-03-03T07:19:58;25.30;;;13.13;;
16892;SDS011;8563;52.242;9.098;2023-03-03T07:22:32;23.13;;;13.20;;
16892;SDS011;8563;52.242;9.098;2023-03-03T07:25:05;27.57;;;15.10;;
16892;SDS011;8563;52.242;9.098;2023-03-03T07:27:45;25.70;;;14.63;;
16892;SDS011;8563;52.242;9.098;2023-03-03T07:30:21;27.07;;;15.03;;
16892;SDS011;8563;52.242;9.098;2023-03-03T07:32:56;31.03;;;16.77;;
16892;SDS011;8563;52.242;9.098;2023-03-03T07:35:35;27.70;;;16.33;;
16892;SDS011;8563;52.242;9.098;2023-03-03T07:38:23;31.50;;;16.37;;
16892;SDS011;8563;52.242;9.098;2023-03-03T07:40:57;29.07;;;16.50;;
16892;SDS011;8563;52.242;9.098;2023-03-03T07:43:34;29.63;;;16.70;;
16892;SDS011;8563;52.242;9.098;2023-03-03T07:48:57;28.67;;;16.43;;
16892;SDS011;8563;52.242;9.098;2023-03-03T07:51:35;26.27;;;14.23;;
16892;SDS011;8563;52.242;9.098;2023-03-03T07:54:16;27.00;;;15.57;;
16892;SDS011;8563;52.242;9.098;2023-03-03T07:56:54;32.33;;;17.20;;
16892;SDS011;8563;52.242;9.098;2023-03-03T07:59:27;27.27;;;15.77;;
16892;SDS011;8563;52.242;9.098;2023-03-03T08:01:59;26.60;;;15.70;;
16892;SDS011;8563;52.242;9.098;2023-03-03T08:04:35;26.40;;;15.53;;
16892;SDS011;8563;52.242;9.098;2023-03-03T08:07:12;32.00;;;16.57;;
16892;SDS011;8563;52.242;9.098;2023-03-03T08:09:46;25.40;;;14.47;;
16892;SDS011;8563;52.242;9.098;2023-03-03T08:12:28;24.97;;;14.07;;
16892;SDS011;8563;52.242;9.098;2023-03-03T08:15:11;26.27;;;15.90;;
16892;SDS011;8563;52.242;9.098;2023-03-03T08:17:46;26.00;;;15.30;;
16892;SDS011;8563;52.242;9.098;2023-03-03T08:20:37;26.63;;;14.70;;
16892;SDS011;8563;52.242;9.098;2023-03-03T08:23:11;23.40;;;14.10;;
16892;SDS011;8563;52.242;9.098;2023-03-03T08:25:44;27.43;;;15.50;;
16892;SDS011;8563;52.242;9.098;2023-03-03T08:28:18;27.73;;;16.53;;
16892;SDS011;8563;52.242;9.098;2023-03-03T08:30:50;26.13;;;14.93;;
16892;SDS011;8563;52.242;9.098;2023-03-03T08:33:23;31.50;;;17.53;;
16892;SDS011;8563;52.242;9.098;2023-03-03T08:35:55;25.80;;;15.33;;
16892;SDS011;8563;52.242;9.098;2023-03-03T08:38:30;26.03;;;14.93;;
16892;SDS011;8563;52.242;9.098;2023-03-03T08:41:03;27.53;;;15.83;;
16892;SDS011;8563;52.242;9.098;2023-03-03T08:43:35;25.33;;;15.23;;
16892;SDS011;8563;52.242;9.098;2023-03-03T08:46:07;26.57;;;15.00;;
16892;SDS011;8563;52.242;9.098;2023-03-03T08:48:41;26.00;;;15.60;;
16892;SDS011;8563;52.242;9.098;2023-03-03T08:51:14;27.07;;;16.43;;
16892;SDS011;8563;52.242;9.098;2023-03-03T08:53:47;26.10;;;15.93;;
16892;SDS011;8563;52.242;9.098;2023-03-03T08:56:20;29.10;;;16.87;;
16892;SDS011;8563;52.242;9.098;2023-03-03T08:58:52;26.37;;;15.67;;
16892;SDS011;8563;52.242;9.098;2023-03-03T09:01:24;28.80;;;16.43;;
16892;SDS011;8563;52.242;9.098;2023-03-03T09:03:57;29.53;;;16.80;;
16892;SDS011;8563;52.242;9.098;2023-03-03T09:06:29;27.57;;;16.87;;
16892;SDS011;8563;52.242;9.098;2023-03-03T09:09:03;28.53;;;16.27;;
16892;SDS011;8563;52.242;9.098;2023-03-03T09:11:36;27.60;;;16.37;;
16892;SDS011;8563;52.242;9.098;2023-03-03T09:14:09;27.77;;;16.93;;
16892;SDS011;8563;52.242;9.098;2023-03-03T09:16:43;34.97;;;23.97;;
16892;SDS011;8563;52.242;9.098;2023-03-03T09:19:18;29.13;;;16.80;;
16892;SDS011;8563;52.242;9.098;2023-03-03T09:21:53;22.47;;;14.70;;
16892;SDS011;8563;52.242;9.098;2023-03-03T09:24:27;24.23;;;14.67;;
16892;SDS011;8563;52.242;9.098;2023-03-03T09:27:00;27.10;;;17.30;;
16892;SDS011;8563;52.242;9.098;2023-03-03T09:29:34;23.87;;;14.67;;
16892;SDS011;8563;52.242;9.098;2023-03-03T09:32:21;24.33;;;13.93;;
16892;SDS011;8563;52.242;9.098;2023-03-03T09:34:55;25.43;;;14.40;;
16892;SDS011;8563;52.242;9.098;2023-03-03T09:37:29;21.60;;;14.40;;
16892;SDS011;8563;52.242;9.098;2023-03-03T09:40:11;20.60;;;13.37;;
16892;SDS011;8563;52.242;9.098;2023-03-03T09:42:47;25.07;;;14.77;;
16892;SDS011;8563;52.242;9.098;2023-03-03T09:45:25;22.50;;;14.83;;
16892;SDS011;8563;52.242;9.098;2023-03-03T09:51:08;24.07;;;13.67;;
16892;SDS011;8563;52.242;9.098;2023-03-03T09:53:47;25.93;;;15.70;;
16892;SDS011;8563;52.242;9.098;2023-03-03T09:56:27;24.40;;;15.23;;
16892;SDS011;8563;52.242;9.098;2023-03-03T09:59:05;21.77;;;13.60;;
16892;SDS011;8563;52.242;9.098;2023-03-03T10:01:47;21.90;;;13.23;;
16892;SDS011;8563;52.242;9.098;2023-03-03T10:07:21;21.67;;;14.57;;
16892;SDS011;8563;52.242;9.098;2023-03-03T10:12:56;25.30;;;14.97;;
16892;SDS011;8563;52.242;9.098;2023-03-03T10:15:36;23.40;;;14.13;;
16892;SDS011;8563;52.242;9.098;2023-03-03T10:18:12;23.17;;;13.50;;
16892;SDS011;8563;52.242;9.098;2023-03-03T10:20:52;23.77;;;14.03;;
16892;SDS011;8563;52.242;9.098;2023-03-03T10:23:35;26.63;;;15.10;;
16892;SDS011;8563;52.242;9.098;2023-03-03T10:26:15;24.37;;;14.37;;
16892;SDS011;8563;52.242;9.098;2023-03-03T10:28:55;22.20;;;13.77;;
16892;SDS011;8563;52.242;9.098;2023-03-03T10:31:36;23.73;;;14.33;;
16892;SDS011;8563;52.242;9.098;2023-03-03T10:34:14;19.33;;;12.70;;
16892;SDS011;8563;52.242;9.098;2023-03-03T10:36:54;24.10;;;13.30;;
16892;SDS011;8563;52.242;9.098;2023-03-03T10:39:31;19.13;;;12.30;;
16892;SDS011;8563;52.242;9.098;2023-03-03T10:45:05;20.27;;;12.57;;
16892;SDS011;8563;52.242;9.098;2023-03-03T10:47:45;23.50;;;14.00;;
16892;SDS011;8563;52.242;9.098;2023-03-03T10:50:22;24.30;;;14.77;;
16892;SDS011;8563;52.242;9.098;2023-03-03T10:52:59;24.30;;;14.30;;
16892;SDS011;8563;52.242;9.098;2023-03-03T10:55:40;21.93;;;13.67;;
16892;SDS011;8563;52.242;9.098;2023-03-03T10:58:28;21.53;;;13.43;;
16892;SDS011;8563;52.242;9.098;2023-03-03T11:01:07;23.10;;;12.90;;
16892;SDS011;8563;52.242;9.098;2023-03-03T11:06:37;20.93;;;13.37;;
16892;SDS011;8563;52.242;9.098;2023-03-03T11:09:13;20.57;;;12.60;;
16892;SDS011;8563;52.242;9.098;2023-03-03T11:11:51;20.87;;;13.00;;
16892;SDS011;8563;52.242;9.098;2023-03-03T11:14:26;22.17;;;13.17;;
16892;SDS011;8563;52.242;9.098;2023-03-03T11:17:03;21.87;;;13.23;;
16892;SDS011;8563;52.242;9.098;2023-03-03T11:19:39;20.97;;;13.47;;
16892;SDS011;8563;52.242;9.098;2023-03-03T11:22:24;28.60;;;16.47;;
16892;SDS011;8563;52.242;9.098;2023-03-03T11:25:00;23.93;;;15.03;;
16892;SDS011;8563;52.242;9.098;2023-03-03T11:27:43;27.97;;;15.77;;
16892;SDS011;8563;52.242;9.098;2023-03-03T11:30:26;25.53;;;15.80;;
16892;SDS011;8563;52.242;9.098;2023-03-03T11:33:05;31.53;;;17.77;;
16892;SDS011;8563;52.242;9.098;2023-03-03T11:35:43;32.20;;;18.07;;
16892;SDS011;8563;52.242;9.098;2023-03-03T11:41:11;36.77;;;20.50;;
16892;SDS011;8563;52.242;9.098;2023-03-03T11:43:48;43.97;;;23.77;;
16892;SDS011;8563;52.242;9.098;2023-03-03T11:46:24;42.23;;;22.80;;
16892;SDS011;8563;52.242;9.098;2023-03-03T11:48:59;48.40;;;25.67;;
16892;SDS011;8563;52.242;9.098;2023-03-03T11:51:38;46.40;;;25.87;;
16892;SDS011;8563;52.242;9.098;2023-03-03T11:54:14;42.87;;;24.00;;
16892;SDS011;8563;52.242;9.098;2023-03-03T11:56:49;44.47;;;23.63;;
16892;SDS011;8563;52.242;9.098;2023-03-03T11:59:28;47.63;;;25.50;;
16892;SDS011;8563;52.242;9.098;2023-03-03T12:02:08;50.83;;;27.07;;
16892;SDS011;8563;52.242;9.098;2023-03-03T12:04:48;46.63;;;26.57;;
16892;SDS011;8563;52.242;9.098;2023-03-03T12:07:24;53.43;;;28.17;;
16892;SDS011;8563;52.242;9.098;2023-03-03T12:10:06;54.63;;;28.23;;
16892;SDS011;8563;52.242;9.098;2023-03-03T12:12:41;51.73;;;28.90;;
16892;SDS011;8563;52.242;9.098;2023-03-03T12:15:18;49.10;;;28.50;;
16892;SDS011;8563;52.242;9.098;2023-03-03T12:17:59;55.67;;;29.70;;
16892;SDS011;8563;52.242;9.098;2023-03-03T12:20:39;46.03;;;28.20;;
16892;SDS011;8563;52.242;9.098;2023-03-03T12:23:16;46.63;;;28.20;;
16892;SDS011;8563;52.242;9.098;2023-03-03T12:25:56;51.77;;;30.03;;
16892;SDS011;8563;52.242;9.098;2023-03-03T12:28:31;53.70;;;30.13;;
16892;SDS011;8563;52.242;9.098;2023-03-03T12:31:10;49.90;;;29.30;;
16892;SDS011;8563;52.242;9.098;2023-03-03T12:33:51;52.57;;;29.47;;
16892;SDS011;8563;52.242;9.098;2023-03-03T12:36:34;47.90;;;28.37;;
16892;SDS011;8563;52.242;9.098;2023-03-03T12:39:09;44.53;;;26.87;;
16892;SDS011;8563;52.242;9.098;2023-03-03T12:41:43;56.03;;;32.67;;
16892;SDS011;8563;52.242;9.098;2023-03-03T12:44:20;52.80;;;33.10;;
16892;SDS011;8563;52.242;9.098;2023-03-03T12:46:55;59.80;;;38.00;;
16892;SDS011;8563;52.242;9.098;2023-03-03T12:49:31;74.10;;;46.07;;
16892;SDS011;8563;52.242;9.098;2023-03-03T12:52:14;75.63;;;47.63;;
16892;SDS011;8563;52.242;9.098;2023-03-03T12:54:54;44.43;;;27.77;;
16892;SDS011;8563;52.242;9.098;2023-03-03T12:57:30;47.47;;;27.47;;
16892;SDS011;8563;52.242;9.098;2023-03-03T13:00:12;41.07;;;24.87;;
16892;SDS011;8563;52.242;9.098;2023-03-03T13:02:51;39.27;;;23.20;;
16892;SDS011;8563;52.242;9.098;2023-03-03T13:05:28;37.43;;;22.37;;
16892;SDS011;8563;52.242;9.098;2023-03-03T13:10:53;37.70;;;22.70;;
16892;SDS011;8563;52.242;9.098;2023-03-03T13:13:29;35.87;;;21.47;;
16892;SDS011;8563;52.242;9.098;2023-03-03T13:16:04;34.10;;;21.27;;
16892;SDS011;8563;52.242;9.098;2023-03-03T13:18:47;32.57;;;20.53;;
16892;SDS011;8563;52.242;9.098;2023-03-03T13:21:21;30.90;;;19.53;;
16892;SDS011;8563;52.242;9.098;2023-03-03T13:23:57;31.40;;;19.90;;
16892;SDS011;8563;52.242;9.098;2023-03-03T13:26:35;33.37;;;21.23;;
16892;SDS011;8563;52.242;9.098;2023-03-03T13:29:10;30.37;;;18.87;;
16892;SDS011;8563;52.242;9.098;2023-03-03T13:31:46;32.03;;;20.50;;
16892;SDS011;8563;52.242;9.098;2023-03-03T13:34:22;29.90;;;19.63;;
16892;SDS011;8563;52.242;9.098;2023-03-03T13:36:57;27.00;;;17.67;;
16892;SDS011;8563;52.242;9.098;2023-03-03T13:39:32;28.20;;;17.50;;
16892;SDS011;8563;52.242;9.098;2023-03-03T13:42:07;26.47;;;16.93;;
16892;SDS011;8563;52.242;9.098;2023-03-03T13:44:43;25.00;;;17.03;;
16892;SDS011;8563;52.242;9.098;2023-03-03T13:47:18;22.90;;;16.60;;
16892;SDS011;8563;52.242;9.098;2023-03-03T13:49:55;25.30;;;16.83;;
16892;SDS011;8563;52.242;9.098;2023-03-03T13:52:31;21.37;;;15.33;;
16892;SDS011;8563;52.242;9.098;2023-03-03T13:55:07;19.67;;;14.03;;
16892;SDS011;8563;52.242;9.098;2023-03-03T13:57:45;21.17;;;14.47;;
16892;SDS011;8563;52.242;9.098;2023-03-03T14:00:21;20.10;;;13.63;;
16892;SDS011;8563;52.242;9.098;2023-03-03T14:03:02;21.43;;;15.53;;
16892;SDS011;8563;52.242;9.098;2023-03-03T14:05:40;23.17;;;16.07;;
16892;SDS011;8563;52.242;9.098;2023-03-03T14:08:21;20.10;;;14.47;;
16892;SDS011;8563;52.242;9.098;2023-03-03T14:10:58;23.00;;;16.13;;
16892;SDS011;8563;52.242;9.098;2023-03-03T14:13:41;20.50;;;14.90;;
16892;SDS011;8563;52.242;9.098;2023-03-03T14:16:16;20.87;;;14.40;;
16892;SDS011;8563;52.242;9.098;2023-03-03T14:18:53;24.00;;;14.87;;
16892;SDS011;8563;52.242;9.098;2023-03-03T14:21:27;21.77;;;14.73;;
16892;SDS011;8563;52.242;9.098;2023-03-03T14:24:01;20.70;;;14.43;;
16892;SDS011;8563;52.242;9.098;2023-03-03T14:26:45;19.50;;;13.63;;
16892;SDS011;8563;52.242;9.098;2023-03-03T14:29:22;20.07;;;14.87;;
16892;SDS011;8563;52.242;9.098;2023-03-03T14:32:01;23.43;;;13.77;;
16892;SDS011;8563;52.242;9.098;2023-03-03T14:35:00;18.80;;;13.27;;
16892;SDS011;8563;52.242;9.098;2023-03-03T14:37:45;21.60;;;14.27;;
16892;SDS011;8563;52.242;9.098;2023-03-03T14:40:19;20.17;;;14.17;;
16892;SDS011;8563;52.242;9.098;2023-03-03T14:42:53;18.90;;;13.27;;
16892;SDS011;8563;52.242;9.098;2023-03-03T14:45:32;18.83;;;13.53;;
16892;SDS011;8563;52.242;9.098;2023-03-03T14:48:09;21.00;;;13.57;;
16892;SDS011;8563;52.242;9.098;2023-03-03T14:50:43;18.00;;;13.00;;
16892;SDS011;8563;52.242;9.098;2023-03-03T14:53:22;19.77;;;13.53;;
16892;SDS011;8563;52.242;9.098;2023-03-03T14:56:16;19.67;;;13.60;;
16892;SDS011;8563;52.242;9.098;2023-03-03T14:58:54;17.67;;;13.07;;
16892;SDS011;8563;52.242;9.098;2023-03-03T15:01:44;21.03;;;13.20;;
16892;SDS011;8563;52.242;9.098;2023-03-03T15:04:24;17.63;;;13.17;;
16892;SDS011;8563;52.242;9.098;2023-03-03T15:06:57;19.50;;;13.93;;
16892;SDS011;8563;52.242;9.098;2023-03-03T15:09:31;19.60;;;13.57;;
16892;SDS011;8563;52.242;9.098;2023-03-03T15:12:17;20.03;;;13.50;;
16892;SDS011;8563;52.242;9.098;2023-03-03T15:14:51;21.60;;;13.73;;
16892;SDS011;8563;52.242;9.098;2023-03-03T15:17:26;20.50;;;14.07;;
16892;SDS011;8563;52.242;9.098;2023-03-03T15:22:53;23.57;;;17.00;;
16892;SDS011;8563;52.242;9.098;2023-03-03T15:25:32;24.73;;;17.20;;
16892;SDS011;8563;52.242;9.098;2023-03-03T15:28:17;20.37;;;14.27;;
16892;SDS011;8563;52.242;9.098;2023-03-03T15:30:54;22.90;;;15.20;;
16892;SDS011;8563;52.242;9.098;2023-03-03T15:33:34;18.57;;;14.10;;
16892;SDS011;8563;52.242;9.098;2023-03-03T15:36:11;19.97;;;13.43;;
16892;SDS011;8563;52.242;9.098;2023-03-03T15:38:46;19.43;;;13.83;;
16892;SDS011;8563;52.242;9.098;2023-03-03T15:41:25;18.50;;;13.50;;
16892;SDS011;8563;52.242;9.098;2023-03-03T15:44:04;20.00;;;12.87;;
16892;SDS011;8563;52.242;9.098;2023-03-03T15:46:41;22.47;;;14.67;;
16892;SDS011;8563;52.242;9.098;2023-03-03T15:49:22;20.40;;;13.47;;
16892;SDS011;8563;52.242;9.098;2023-03-03T15:52:01;21.33;;;14.00;;
16892;SDS011;8563;52.242;9.098;2023-03-03T15:54:42;18.00;;;13.03;;